createdAt,value
2022-08-16T00:00:22.118Z,100320
2022-08-16T00:02:16.074Z,100320
2022-08-16T00:04:16.595Z,100320
2022-08-16T00:06:16.548Z,100320
2022-08-16T00:08:35.789Z,100320
2022-08-16T00:10:21.085Z,100320
2022-08-16T00:12:18.578Z,100320
2022-08-16T00:14:22.537Z,100320
2022-08-16T00:17:11.479Z,100320
2022-08-16T00:18:19.353Z,100320
2022-08-16T00:20:21.039Z,100320
2022-08-16T00:22:20.833Z,100320
2022-08-16T00:24:31.110Z,100320
2022-08-16T00:26:34.592Z,100320
2022-08-16T00:28:20.483Z,100320
2022-08-16T00:30:29.000Z,100320
2022-08-16T00:32:21.016Z,100330
2022-08-16T00:34:22.265Z,100330
2022-08-16T00:36:21.677Z,100330
2022-08-16T00:38:40.343Z,100330
2022-08-16T00:40:34.322Z,100330
2022-08-16T00:42:30.095Z,100330
2022-08-16T00:44:23.138Z,100330
2022-08-16T00:46:33.834Z,100330
2022-08-16T00:48:31.347Z,100330
2022-08-16T00:50:36.567Z,100330
2022-08-16T00:52:30.072Z,100330
2022-08-16T00:54:28.460Z,100330
2022-08-16T00:56:57.867Z,100330
2022-08-16T00:58:35.022Z,100330
2022-08-16T01:00:26.142Z,100330
2022-08-16T01:02:30.850Z,100330
2022-08-16T01:04:29.836Z,100330
2022-08-16T01:06:32.476Z,100330
2022-08-16T01:08:35.026Z,100330
2022-08-16T01:10:31.955Z,100330
2022-08-16T01:12:27.634Z,100330
2022-08-16T01:14:32.323Z,100330
2022-08-16T01:16:29.967Z,100330
2022-08-16T01:18:40.803Z,100330
2022-08-16T01:20:32.728Z,100330
2022-08-16T01:22:47.778Z,100330
2022-08-16T01:24:52.726Z,100330
2022-08-16T01:26:34.157Z,100330
2022-08-16T01:28:32.338Z,100330
2022-08-16T01:30:32.582Z,100330
2022-08-16T01:32:34.597Z,100330
2022-08-16T01:34:31.305Z,100330
2022-08-16T01:36:33.812Z,100330
2022-08-16T01:38:34.481Z,100340
2022-08-16T01:40:32.196Z,100340
2022-08-16T01:42:32.953Z,100340
2022-08-16T01:44:37.289Z,100340
2022-08-16T01:46:40.008Z,100340
2022-08-16T01:48:34.294Z,100340
2022-08-16T01:50:59.680Z,100350
2022-08-16T01:52:37.251Z,100350
2022-08-16T01:54:34.759Z,100350
2022-08-16T01:56:35.819Z,100350
2022-08-16T01:58:35.182Z,100350
2022-08-16T02:00:35.240Z,100350
2022-08-16T02:02:35.904Z,100350
2022-08-16T02:04:48.139Z,100350
2022-08-16T02:06:38.604Z,100350
2022-08-16T02:08:36.414Z,100350
2022-08-16T02:10:37.776Z,100350
2022-08-16T02:12:50.274Z,100350
2022-08-16T02:14:38.238Z,100350
2022-08-16T02:16:37.653Z,100350
2022-08-16T02:18:38.427Z,100350
2022-08-16T02:20:39.688Z,100350
2022-08-16T02:22:38.976Z,100350
2022-08-16T02:24:41.241Z,100350
2022-08-16T02:26:39.127Z,100350
2022-08-16T02:28:39.380Z,100350
2022-08-16T02:30:44.064Z,100350
2022-08-16T02:32:50.072Z,100350
2022-08-16T02:34:40.815Z,100350
2022-08-16T02:36:49.967Z,100360
2022-08-16T02:38:41.059Z,100360
2022-08-16T02:40:42.189Z,100360
2022-08-16T02:42:41.519Z,100360
2022-08-16T02:44:42.391Z,100360
2022-08-16T02:46:49.811Z,100360
2022-08-16T02:48:49.181Z,100360
2022-08-16T02:50:53.546Z,100360
2022-08-16T02:52:44.188Z,100360
2022-08-16T02:54:43.881Z,100360
2022-08-16T02:56:47.839Z,100360
2022-08-16T02:58:44.569Z,100360
2022-08-16T03:00:45.453Z,100360
2022-08-16T03:02:45.897Z,100360
2022-08-16T03:04:52.558Z,100360
2022-08-16T03:06:56.490Z,100360
2022-08-16T03:08:51.801Z,100360
2022-08-16T03:10:45.930Z,100360
2022-08-16T03:12:55.706Z,100360
2022-08-16T03:14:47.619Z,100360
2022-08-16T03:17:00.201Z,100360
2022-08-16T03:18:47.898Z,100360
2022-08-16T03:20:55.709Z,100360
2022-08-16T03:22:48.465Z,100360
2022-08-16T03:24:48.355Z,100360
2022-08-16T03:26:48.880Z,100360
2022-08-16T03:28:49.943Z,100360
2022-08-16T03:30:49.915Z,100360
2022-08-16T03:32:51.526Z,100360
2022-08-16T03:34:50.178Z,100360
2022-08-16T03:36:50.948Z,100360
2022-08-16T03:38:50.851Z,100360
2022-08-16T03:40:51.681Z,100360
2022-08-16T03:43:19.101Z,100360
2022-08-16T03:45:02.955Z,100360
2022-08-16T03:46:55.892Z,100360
2022-08-16T03:48:52.796Z,100360
2022-08-16T03:51:00.139Z,100370
2022-08-16T03:52:59.624Z,100370
2022-08-16T03:54:58.039Z,100370
2022-08-16T03:56:57.008Z,100370
2022-08-16T03:58:55.441Z,100370
2022-08-16T04:00:56.962Z,100370
2022-08-16T04:02:58.383Z,100370
2022-08-16T04:04:56.380Z,100370
2022-08-16T04:06:57.844Z,100370
2022-08-16T04:08:57.208Z,100370
2022-08-16T04:11:00.224Z,100370
2022-08-16T04:13:04.496Z,100370
2022-08-16T04:14:59.979Z,100380
2022-08-16T04:17:06.901Z,100380
2022-08-16T04:19:02.337Z,100380
2022-08-16T04:21:01.158Z,100380
2022-08-16T04:23:01.623Z,100380
2022-08-16T04:25:07.066Z,100370
2022-08-16T04:27:02.933Z,100370
2022-08-16T04:29:15.283Z,100370
2022-08-16T04:31:04.383Z,100370
2022-08-16T04:33:05.559Z,100370
2022-08-16T04:35:13.702Z,100370
2022-08-16T04:37:08.423Z,100370
2022-08-16T04:39:06.366Z,100370
2022-08-16T04:41:07.509Z,100370
2022-08-16T04:43:08.675Z,100370
2022-08-16T04:45:10.666Z,100370
2022-08-16T04:47:24.261Z,100380
2022-08-16T04:49:09.813Z,100380
2022-08-16T04:51:15.307Z,100380
2022-08-16T04:53:12.110Z,100380
2022-08-16T04:55:15.751Z,100370
2022-08-16T04:57:12.290Z,100370
2022-08-16T04:59:12.899Z,100370
2022-08-16T05:01:13.525Z,100370
2022-08-16T05:03:17.668Z,100370
2022-08-16T05:05:17.232Z,100370
2022-08-16T05:07:30.492Z,100370
2022-08-16T05:09:17.237Z,100370
2022-08-16T05:11:17.931Z,100370
2022-08-16T05:13:18.094Z,100370
2022-08-16T05:15:18.569Z,100370
2022-08-16T05:17:19.313Z,100370
2022-08-16T05:19:39.663Z,100370
2022-08-16T05:21:22.230Z,100370
2022-08-16T05:23:21.216Z,100370
2022-08-16T05:25:25.077Z,100370
2022-08-16T05:27:22.905Z,100370
2022-08-16T05:30:00.879Z,100370
2022-08-16T05:31:29.468Z,100370
2022-08-16T05:33:24.576Z,100370
2022-08-16T05:35:39.678Z,100370
2022-08-16T05:37:26.793Z,100370
2022-08-16T05:39:27.646Z,100370
2022-08-16T05:41:27.382Z,100370
2022-08-16T05:43:28.498Z,100370
2022-08-16T05:45:31.973Z,100370
2022-08-16T05:47:30.307Z,100370
2022-08-16T05:49:39.972Z,100370
2022-08-16T05:51:37.697Z,100370
2022-08-16T05:53:38.672Z,100370
2022-08-16T05:55:32.309Z,100370
2022-08-16T05:57:35.439Z,100370
2022-08-16T05:59:34.608Z,100370
2022-08-16T06:01:38.311Z,100370
2022-08-16T06:03:38.846Z,100370
2022-08-16T06:05:36.288Z,100370
2022-08-16T06:07:41.601Z,100370
2022-08-16T06:09:44.427Z,100370
2022-08-16T06:11:38.758Z,100370
2022-08-16T06:13:42.319Z,100370
2022-08-16T06:15:41.514Z,100370
2022-08-16T06:17:43.603Z,100370
2022-08-16T06:19:46.228Z,100370
2022-08-16T06:21:42.073Z,100370
2022-08-16T06:23:43.906Z,100360
2022-08-16T06:25:43.834Z,100360
2022-08-16T06:27:57.195Z,100360
2022-08-16T06:29:50.254Z,100360
2022-08-16T06:31:48.944Z,100360
2022-08-16T06:33:48.448Z,100360
2022-08-16T06:35:47.684Z,100360
2022-08-16T06:37:51.505Z,100360
2022-08-16T06:39:55.616Z,100360
2022-08-16T06:42:04.645Z,100360
2022-08-16T06:43:51.748Z,100360
2022-08-16T06:45:54.885Z,100360
2022-08-16T06:47:52.799Z,100360
2022-08-16T06:49:54.350Z,100360
2022-08-16T06:52:02.633Z,100360
2022-08-16T06:53:54.406Z,100360
2022-08-16T06:55:57.489Z,100360
2022-08-16T06:57:57.103Z,100360
2022-08-16T06:59:58.478Z,100350
2022-08-16T07:01:58.823Z,100350
2022-08-16T07:04:02.740Z,100350
2022-08-16T07:06:06.374Z,100350
2022-08-16T07:08:00.473Z,100350
2022-08-16T07:10:00.629Z,100350
2022-08-16T07:12:05.573Z,100350
2022-08-16T07:14:24.491Z,100350
2022-08-16T07:16:04.612Z,100350
2022-08-16T07:18:04.425Z,100350
2022-08-16T07:20:35.057Z,100350
2022-08-16T07:22:05.195Z,100350
2022-08-16T07:24:06.478Z,100350
2022-08-16T07:26:10.048Z,100350
2022-08-16T07:28:12.050Z,100350
2022-08-16T07:30:39.489Z,100350
2022-08-16T07:32:09.777Z,100350
2022-08-16T07:34:10.244Z,100350
2022-08-16T07:36:21.642Z,100350
2022-08-16T07:38:19.703Z,100350
2022-08-16T07:40:14.923Z,100350
2022-08-16T07:42:20.153Z,100350
2022-08-16T07:44:16.373Z,100350
2022-08-16T07:46:37.641Z,100350
2022-08-16T07:48:16.599Z,100350
2022-08-16T07:50:57.220Z,100350
2022-08-16T07:52:20.506Z,100350
2022-08-16T07:54:21.086Z,100350
2022-08-16T07:56:17.012Z,100350
2022-08-16T07:58:18.189Z,100350
2022-08-16T08:00:19.329Z,100350
2022-08-16T08:02:20.459Z,100350
2022-08-16T08:04:20.225Z,100350
2022-08-16T08:06:24.990Z,100350
2022-08-16T08:08:50.168Z,100350
2022-08-16T08:10:29.170Z,100350
2022-08-16T08:12:31.313Z,100340
2022-08-16T08:14:30.142Z,100340
2022-08-16T08:16:30.956Z,100340
2022-08-16T08:18:30.681Z,100340
2022-08-16T08:20:27.925Z,100340
2022-08-16T08:22:27.326Z,100340
2022-08-16T08:24:31.947Z,100340
2022-08-16T08:26:26.277Z,100340
2022-08-16T08:28:29.859Z,100340
2022-08-16T08:30:51.469Z,100340
2022-08-16T08:32:58.073Z,100330
2022-08-16T08:34:28.839Z,100330
2022-08-16T08:36:33.481Z,100320
2022-08-16T08:38:44.190Z,100320
2022-08-16T08:40:31.187Z,100320
2022-08-16T08:42:31.323Z,100320
2022-08-16T08:44:38.415Z,100320
2022-08-16T08:46:35.770Z,100320
2022-08-16T08:48:35.664Z,100320
2022-08-16T08:50:34.954Z,100320
2022-08-16T08:52:37.929Z,100320
2022-08-16T08:54:35.125Z,100320
2022-08-16T08:56:45.970Z,100320
2022-08-16T08:58:54.330Z,100320
2022-08-16T09:00:51.131Z,100320
2022-08-16T09:02:38.179Z,100320
2022-08-16T09:04:40.125Z,100320
2022-08-16T09:06:43.233Z,100320
2022-08-16T09:08:47.407Z,100320
2022-08-16T09:10:40.987Z,100320
2022-08-16T09:12:46.643Z,100310
2022-08-16T09:14:47.181Z,100310
2022-08-16T09:17:01.128Z,100310
2022-08-16T09:18:43.664Z,100310
2022-08-16T09:20:59.646Z,100320
2022-08-16T09:22:51.172Z,100320
2022-08-16T09:24:52.008Z,100320
2022-08-16T09:26:46.612Z,100320
2022-08-16T09:29:15.345Z,100320
2022-08-16T09:30:46.667Z,100320
2022-08-16T09:32:47.499Z,100320
2022-08-16T09:34:47.820Z,100320
2022-08-16T09:36:48.591Z,100320
2022-08-16T09:38:48.975Z,100320
2022-08-16T09:40:50.340Z,100320
2022-08-16T09:42:56.559Z,100320
2022-08-16T09:45:12.161Z,100320
2022-08-16T09:46:57.490Z,100320
2022-08-16T09:48:52.287Z,100320
2022-08-16T09:50:52.682Z,100320
2022-08-16T09:52:53.331Z,100320
2022-08-16T09:54:53.889Z,100320
2022-08-16T09:56:54.653Z,100320
2022-08-16T09:59:04.790Z,100320
2022-08-16T10:00:56.052Z,100320
2022-08-16T10:02:56.642Z,100320
2022-08-16T10:04:57.829Z,100320
2022-08-16T10:09:06.036Z,100320
2022-08-16T10:10:58.857Z,100310
2022-08-16T10:12:59.776Z,100310
2022-08-16T10:15:00.087Z,100310
2022-08-16T10:17:03.823Z,100310
2022-08-16T10:19:06.395Z,100310
2022-08-16T10:21:01.980Z,100310
2022-08-16T10:23:07.412Z,100310
2022-08-16T10:25:04.288Z,100310
2022-08-16T10:27:25.996Z,100310
2022-08-16T10:29:05.193Z,100310
2022-08-16T10:31:07.092Z,100310
2022-08-16T10:33:05.674Z,100310
2022-08-16T10:35:07.395Z,100310
2022-08-16T10:37:07.052Z,100310
2022-08-16T10:39:08.503Z,100310
2022-08-16T10:41:10.337Z,100300
2022-08-16T10:43:08.963Z,100300
2022-08-16T10:45:09.891Z,100300
2022-08-16T10:47:11.555Z,100300
2022-08-16T10:49:12.512Z,100300
2022-08-16T10:51:11.812Z,100300
2022-08-16T10:53:11.779Z,100300
2022-08-16T10:57:13.053Z,100300
2022-08-16T10:59:32.905Z,100300
2022-08-16T11:01:43.616Z,100300
2022-08-16T11:05:17.511Z,100290
2022-08-16T11:09:25.456Z,100290
2022-08-16T11:11:19.627Z,100290
2022-08-16T11:13:57.424Z,100290
2022-08-16T11:15:18.915Z,100290
2022-08-16T11:17:19.069Z,100290
2022-08-16T11:19:19.621Z,100290
2022-08-16T11:21:29.303Z,100290
2022-08-16T11:23:20.768Z,100290
2022-08-16T11:27:24.023Z,100290
2022-08-16T11:29:22.683Z,100290
2022-08-16T11:31:23.508Z,100280
2022-08-16T11:33:51.794Z,100280
2022-08-16T11:37:27.442Z,100280
2022-08-16T11:39:25.814Z,100280
2022-08-16T11:41:29.288Z,100280
2022-08-16T11:43:29.183Z,100280
2022-08-16T11:45:27.453Z,100280
2022-08-16T11:47:28.874Z,100280
2022-08-16T11:49:28.653Z,100280
2022-08-16T11:51:29.306Z,100280
2022-08-16T11:53:35.799Z,100280
2022-08-16T11:55:31.520Z,100280
2022-08-16T11:57:31.038Z,100270
2022-08-16T11:59:32.786Z,100270
2022-08-16T12:01:44.546Z,100270
2022-08-16T12:03:35.276Z,100270
2022-08-16T12:05:34.215Z,100270
2022-08-16T12:07:34.262Z,100270
2022-08-16T12:09:34.561Z,100270
2022-08-16T12:11:35.191Z,100270
2022-08-16T12:13:36.355Z,100270
2022-08-16T12:15:36.981Z,100260
2022-08-16T12:17:38.321Z,100260
2022-08-16T12:19:37.975Z,100250
2022-08-16T12:21:58.042Z,100250
2022-08-16T12:23:38.775Z,100250
2022-08-16T12:25:39.500Z,100250
2022-08-16T12:27:40.767Z,100250
2022-08-16T12:29:40.580Z,100250
2022-08-16T12:31:59.329Z,100240
2022-08-16T12:33:44.608Z,100240
2022-08-16T12:35:45.899Z,100240
2022-08-16T12:37:46.238Z,100240
2022-08-16T12:39:50.817Z,100240
2022-08-16T12:41:45.135Z,100230
2022-08-16T12:43:45.331Z,100230
2022-08-16T12:45:48.693Z,100230
2022-08-16T12:47:46.297Z,100230
2022-08-16T12:49:46.453Z,100230
2022-08-16T12:51:58.280Z,100230
2022-08-16T12:53:48.139Z,100220
2022-08-16T12:55:49.159Z,100220
2022-08-16T12:57:57.996Z,100220
2022-08-16T12:59:49.468Z,100220
2022-08-16T13:01:50.585Z,100220
2022-08-16T13:04:08.266Z,100220
2022-08-16T13:05:55.379Z,100220
2022-08-16T13:07:53.324Z,100220
2022-08-16T13:09:52.534Z,100220
2022-08-16T13:11:58.102Z,100220
2022-08-16T13:13:54.927Z,100220
2022-08-16T13:16:02.037Z,100220
2022-08-16T13:17:55.418Z,100220
2022-08-16T13:20:07.142Z,100220
2022-08-16T13:21:55.979Z,100220
2022-08-16T13:23:56.689Z,100220
2022-08-16T13:25:58.180Z,100220
2022-08-16T13:28:03.274Z,100220
2022-08-16T13:29:58.355Z,100220
2022-08-16T13:31:59.256Z,100220
2022-08-16T13:33:59.488Z,100220
2022-08-16T13:36:02.560Z,100220
2022-08-16T13:38:00.892Z,100200
2022-08-16T13:40:01.799Z,100200
2022-08-16T13:42:01.878Z,100210
2022-08-16T13:44:09.048Z,100210
2022-08-16T13:46:04.762Z,100210
2022-08-16T13:48:04.414Z,100210
2022-08-16T13:50:05.112Z,100210
2022-08-16T13:52:04.992Z,100210
2022-08-16T13:54:06.094Z,100210
2022-08-16T13:56:06.187Z,100200
2022-08-16T13:58:37.805Z,100200
2022-08-16T14:00:13.241Z,100200
2022-08-16T14:02:11.428Z,100200
2022-08-16T14:04:08.780Z,100200
2022-08-16T14:06:10.725Z,100200
2022-08-16T14:08:09.390Z,100190
2022-08-16T14:10:11.979Z,100190
2022-08-16T14:12:20.549Z,100190
2022-08-16T14:14:11.271Z,100180
2022-08-16T14:16:12.503Z,100180
2022-08-16T14:18:17.006Z,100180
2022-08-16T14:20:19.200Z,100180
2022-08-16T14:22:30.894Z,100180
2022-08-16T14:24:22.496Z,100180
2022-08-16T14:26:14.680Z,100180
2022-08-16T14:28:15.190Z,100180
2022-08-16T14:30:17.869Z,100180
2022-08-16T14:32:33.706Z,100180
2022-08-16T14:34:17.036Z,100180
2022-08-16T14:36:18.833Z,100180
2022-08-16T14:38:19.041Z,100180
2022-08-16T14:40:19.840Z,100180
2022-08-16T14:42:23.137Z,100180
2022-08-16T14:44:19.914Z,100180
2022-08-16T14:46:20.574Z,100180
2022-08-16T14:48:25.997Z,100180
2022-08-16T14:50:24.531Z,100180
2022-08-16T14:52:44.431Z,100180
2022-08-16T14:54:27.299Z,100180
2022-08-16T14:56:38.962Z,100180
2022-08-16T14:58:35.007Z,100170
2022-08-16T15:00:27.010Z,100170
2022-08-16T15:02:34.491Z,100170
2022-08-16T15:04:32.236Z,100170
2022-08-16T15:06:26.533Z,100160
2022-08-16T15:08:34.187Z,100160
2022-08-16T15:10:29.327Z,100160
2022-08-16T15:12:33.282Z,100160
2022-08-16T15:14:28.563Z,100160
2022-08-16T15:16:29.352Z,100160
2022-08-16T15:18:31.951Z,100160
2022-08-16T15:20:32.988Z,100160
2022-08-16T15:22:36.333Z,100160
2022-08-16T15:24:31.459Z,100160
2022-08-16T15:26:39.125Z,100160
2022-08-16T15:28:33.405Z,100160
2022-08-16T15:30:57.447Z,100160
2022-08-16T15:32:33.749Z,100160
2022-08-16T15:34:34.264Z,100160
2022-08-16T15:36:35.665Z,100160
2022-08-16T15:38:56.315Z,100160
2022-08-16T15:40:36.500Z,100150
2022-08-16T15:42:36.923Z,100150
2022-08-16T15:44:50.940Z,100150
2022-08-16T15:46:55.010Z,100150
2022-08-16T15:48:40.368Z,100150
2022-08-16T15:50:41.063Z,100150
2022-08-16T15:52:39.375Z,100150
2022-08-16T15:54:52.447Z,100150
2022-08-16T15:56:42.588Z,100150
2022-08-16T15:58:41.029Z,100150
2022-08-16T16:00:43.121Z,100150
2022-08-16T16:02:43.030Z,100150
2022-08-16T16:04:42.756Z,100150
2022-08-16T16:06:43.538Z,100150
2022-08-16T16:08:43.821Z,100150
2022-08-16T16:10:54.131Z,100150
2022-08-16T16:12:54.494Z,100150
2022-08-16T16:14:45.482Z,100150
2022-08-16T16:16:46.234Z,100150
2022-08-16T16:18:48.907Z,100150
2022-08-16T16:20:50.529Z,100150
2022-08-16T16:22:47.979Z,100150
2022-08-16T16:24:48.383Z,100150
2022-08-16T16:26:48.825Z,100150
2022-08-16T16:29:07.801Z,100150
2022-08-16T16:30:52.657Z,100150
2022-08-16T16:32:50.517Z,100150
2022-08-16T16:34:50.980Z,100150
2022-08-16T16:36:51.530Z,100150
2022-08-16T16:38:52.489Z,100150
2022-08-16T16:40:54.147Z,100150
2022-08-16T16:42:53.383Z,100150
2022-08-16T16:44:57.514Z,100150
2022-08-16T16:46:56.856Z,100150
2022-08-16T16:48:54.758Z,100150
2022-08-16T16:50:55.456Z,100150
2022-08-16T16:52:56.385Z,100150
2022-08-16T16:54:57.374Z,100160
2022-08-16T16:56:57.096Z,100160
2022-08-16T16:59:01.440Z,100160
2022-08-16T17:00:59.057Z,100160
2022-08-16T17:02:59.200Z,100160
2022-08-16T17:04:59.093Z,100160
2022-08-16T17:07:01.121Z,100160
2022-08-16T17:09:00.373Z,100160
2022-08-16T17:11:00.614Z,100160
2022-08-16T17:13:02.025Z,100160
2022-08-16T17:15:01.722Z,100160
2022-08-16T17:17:04.781Z,100160
2022-08-16T17:19:17.175Z,100160
2022-08-16T17:21:05.044Z,100160
2022-08-16T17:23:04.600Z,100170
2022-08-16T17:25:07.746Z,100180
2022-08-16T17:27:04.946Z,100180
2022-08-16T17:29:11.417Z,100180
2022-08-16T17:31:06.010Z,100180
2022-08-16T17:33:08.064Z,100180
2022-08-16T17:35:13.947Z,100180
2022-08-16T17:37:08.072Z,100180
2022-08-16T17:39:07.958Z,100180
2022-08-16T17:41:08.439Z,100180
2022-08-16T17:43:10.420Z,100180
2022-08-16T17:45:09.970Z,100180
2022-08-16T17:47:10.213Z,100180
2022-08-16T17:49:10.420Z,100180
2022-08-16T17:51:11.053Z,100180
2022-08-16T17:53:12.905Z,100180
2022-08-16T17:55:19.881Z,100180
2022-08-16T17:57:12.366Z,100180
2022-08-16T17:59:12.842Z,100180
2022-08-16T18:01:13.496Z,100180
2022-08-16T18:03:17.134Z,100180
2022-08-16T18:05:14.245Z,100180
2022-08-16T18:07:15.051Z,100180
2022-08-16T18:09:15.327Z,100180
2022-08-16T18:11:17.184Z,100180
2022-08-16T18:13:16.578Z,100180
2022-08-16T18:15:17.804Z,100180
2022-08-16T18:17:17.269Z,100180
2022-08-16T18:19:17.674Z,100180
2022-08-16T18:21:18.232Z,100180
2022-08-16T18:23:22.021Z,100180
2022-08-16T18:25:19.173Z,100180
2022-08-16T18:27:26.292Z,100180
2022-08-16T18:29:20.085Z,100180
2022-08-16T18:31:20.568Z,100180
2022-08-16T18:33:23.253Z,100180
2022-08-16T18:35:22.209Z,100180
2022-08-16T18:37:22.684Z,100180
2022-08-16T18:39:22.714Z,100180
2022-08-16T18:41:25.832Z,100180
2022-08-16T18:44:22.585Z,100180
2022-08-16T18:45:26.390Z,100180
2022-08-16T18:47:24.504Z,100180
2022-08-16T18:49:24.960Z,100180
2022-08-16T18:51:25.750Z,100180
2022-08-16T18:53:27.788Z,100170
2022-08-16T18:55:28.451Z,100170
2022-08-16T18:57:26.878Z,100170
2022-08-16T18:59:30.149Z,100170
2022-08-16T19:01:27.821Z,100170
2022-08-16T19:03:30.657Z,100170
2022-08-16T19:05:30.974Z,100170
2022-08-16T19:07:31.259Z,100170
2022-08-16T19:09:29.602Z,100170
2022-08-16T19:11:30.244Z,100170
2022-08-16T19:13:33.019Z,100170
2022-08-16T19:15:30.995Z,100170
2022-08-16T19:17:31.623Z,100170
2022-08-16T19:19:31.935Z,100170
2022-08-16T19:21:32.411Z,100170
2022-08-16T19:23:35.871Z,100180
2022-08-16T19:25:46.955Z,100180
2022-08-16T19:27:34.490Z,100180
2022-08-16T19:29:34.229Z,100180
2022-08-16T19:31:34.749Z,100180
2022-08-16T19:33:35.943Z,100180
2022-08-16T19:35:36.672Z,100180
2022-08-16T19:37:46.080Z,100180
2022-08-16T19:39:37.356Z,100180
2022-08-16T19:41:40.195Z,100180
2022-08-16T19:43:37.517Z,100180
2022-08-16T19:45:43.851Z,100180
2022-08-16T19:47:38.386Z,100180
2022-08-16T19:49:39.348Z,100180
2022-08-16T19:51:39.373Z,100180
2022-08-16T19:53:39.771Z,100180
2022-08-16T19:55:40.771Z,100180
2022-08-16T19:57:41.531Z,100180
2022-08-16T19:59:42.124Z,100180
2022-08-16T20:01:43.450Z,100180
2022-08-16T20:03:42.090Z,100180
2022-08-16T20:05:43.971Z,100180
2022-08-16T20:07:43.267Z,100180
2022-08-16T20:09:44.514Z,100180
2022-08-16T20:11:44.570Z,100180
2022-08-16T20:13:44.410Z,100180
2022-08-16T20:15:46.622Z,100180
2022-08-16T20:17:46.563Z,100180
2022-08-16T20:19:45.911Z,100180
2022-08-16T20:21:46.218Z,100180
2022-08-16T20:23:46.600Z,100180
2022-08-16T20:25:49.728Z,100180
2022-08-16T20:27:47.592Z,100180
2022-08-16T20:29:48.875Z,100180
2022-08-16T20:31:48.401Z,100180
2022-08-16T20:33:48.965Z,100180
2022-08-16T20:35:49.416Z,100180
2022-08-16T20:37:49.771Z,100180
2022-08-16T20:40:05.696Z,100180
2022-08-16T20:41:50.699Z,100180
2022-08-16T20:43:51.020Z,100180
2022-08-16T20:45:51.399Z,100180
2022-08-16T20:47:51.853Z,100180
2022-08-16T20:49:52.576Z,100190
2022-08-16T20:51:57.217Z,100190
2022-08-16T20:53:53.162Z,100190
2022-08-16T20:55:53.570Z,100190
2022-08-16T20:57:53.929Z,100190
2022-08-16T20:59:54.404Z,100190
2022-08-16T21:01:55.415Z,100190
2022-08-16T21:03:55.217Z,100190
2022-08-16T21:05:56.944Z,100190
2022-08-16T21:07:56.313Z,100190
2022-08-16T21:09:56.536Z,100190
2022-08-16T21:11:58.444Z,100190
2022-08-16T21:14:00.737Z,100190
2022-08-16T21:15:58.386Z,100190
2022-08-16T21:17:59.060Z,100190
2022-08-16T21:19:58.648Z,100190
2022-08-16T21:22:10.221Z,100190
2022-08-16T21:23:59.589Z,100200
2022-08-16T21:26:00.035Z,100200
2022-08-16T21:28:39.159Z,100200
2022-08-16T21:30:00.786Z,100200
2022-08-16T21:32:06.257Z,100200
2022-08-16T21:34:01.568Z,100200
2022-08-16T21:36:02.935Z,100200
2022-08-16T21:38:28.712Z,100200
2022-08-16T21:40:04.363Z,100200
2022-08-16T21:42:07.662Z,100200
2022-08-16T21:44:04.058Z,100200
2022-08-16T21:46:06.350Z,100200
2022-08-16T21:48:05.632Z,100200
2022-08-16T21:50:06.106Z,100200
2022-08-16T21:52:07.357Z,100200
2022-08-16T21:54:05.779Z,100200
2022-08-16T21:56:07.074Z,100200
2022-08-16T21:58:06.760Z,100200
2022-08-16T22:00:12.239Z,100200
2022-08-16T22:02:07.309Z,100200
2022-08-16T22:04:36.773Z,100200
2022-08-16T22:06:14.252Z,100200
2022-08-16T22:08:09.248Z,100200
2022-08-16T22:11:01.266Z,100200
2022-08-16T22:12:13.890Z,100200
2022-08-16T22:14:09.858Z,100200
2022-08-16T22:16:10.066Z,100200
2022-08-16T22:18:10.675Z,100200
2022-08-16T22:20:10.993Z,100200
2022-08-16T22:22:11.916Z,100200
2022-08-16T22:24:11.722Z,100200
2022-08-16T22:26:12.025Z,100200
2022-08-16T22:28:13.916Z,100200
2022-08-16T22:30:13.589Z,100200
2022-08-16T22:32:13.325Z,100200
2022-08-16T22:34:13.880Z,100190
2022-08-16T22:36:14.043Z,100190
2022-08-16T22:38:56.397Z,100190
2022-08-16T22:40:15.290Z,100190
2022-08-16T22:42:15.194Z,100190
2022-08-16T22:44:16.431Z,100190
2022-08-16T22:46:15.958Z,100190
2022-08-16T22:48:16.601Z,100190
2022-08-16T22:50:17.129Z,100190
2022-08-16T22:52:50.803Z,100190
2022-08-16T22:54:40.916Z,100190
2022-08-16T22:56:18.188Z,100190
2022-08-16T22:58:18.275Z,100190
2022-08-16T23:00:21.952Z,100190
2022-08-16T23:02:19.140Z,100190
2022-08-16T23:04:19.623Z,100190
2022-08-16T23:06:20.564Z,100190
2022-08-16T23:08:38.031Z,100190
2022-08-16T23:10:21.302Z,100190
2022-08-16T23:12:21.064Z,100190
2022-08-16T23:14:21.585Z,100200
2022-08-16T23:16:24.944Z,100200
2022-08-16T23:18:26.937Z,100200
2022-08-16T23:20:26.377Z,100200
2022-08-16T23:22:24.704Z,100200
2022-08-16T23:24:23.476Z,100200
2022-08-16T23:26:45.255Z,100200
2022-08-16T23:28:26.197Z,100200
2022-08-16T23:30:25.945Z,100200
2022-08-16T23:32:24.898Z,100200
2022-08-16T23:34:27.595Z,100200
2022-08-16T23:36:25.483Z,100200
2022-08-16T23:38:37.664Z,100200
2022-08-16T23:40:27.933Z,100200
2022-08-16T23:42:53.170Z,100200
2022-08-16T23:44:57.521Z,100200
2022-08-16T23:46:27.503Z,100200
2022-08-16T23:48:29.861Z,100200
2022-08-16T23:50:29.388Z,100200
2022-08-16T23:52:39.431Z,100200
2022-08-16T23:54:28.702Z,100200
2022-08-16T23:56:30.039Z,100200
2022-08-16T23:58:31.777Z,100200
